sensor_id;sensor_type;location;lat;lon;timestamp;temperature;humidity
298;DHT22;133;49.626;9.680;2023-02-15T00:00:12;4.00;93.20
298;DHT22;133;49.626;9.680;2023-02-15T00:02:38;4.00;93.30
298;DHT22;133;49.626;9.680;2023-02-15T00:05:04;4.00;93.10
298;DHT22;133;49.626;9.680;2023-02-15T00:07:30;4.10;93.30
298;DHT22;133;49.626;9.680;2023-02-15T00:09:55;4.10;93.20
298;DHT22;133;49.626;9.680;2023-02-15T00:12:21;4.10;93.30
298;DHT22;133;49.626;9.680;2023-02-15T00:14:47;4.00;93.40
298;DHT22;133;49.626;9.680;2023-02-15T00:17:13;4.10;93.30
298;DHT22;133;49.626;9.680;2023-02-15T00:19:38;4.10;93.30
298;DHT22;133;49.626;9.680;2023-02-15T00:22:05;4.10;93.30
298;DHT22;133;49.626;9.680;2023-02-15T00:24:31;4.00;93.20
298;DHT22;133;49.626;9.680;2023-02-15T00:26:57;3.90;93.40
298;DHT22;133;49.626;9.680;2023-02-15T00:29:22;4.00;93.50
298;DHT22;133;49.626;9.680;2023-02-15T00:31:48;4.00;93.50
298;DHT22;133;49.626;9.680;2023-02-15T00:34:22;3.90;93.40
298;DHT22;133;49.626;9.680;2023-02-15T00:36:48;3.90;93.40
298;DHT22;133;49.626;9.680;2023-02-15T00:39:15;3.70;93.60
298;DHT22;133;49.626;9.680;2023-02-15T00:41:41;3.70;93.90
298;DHT22;133;49.626;9.680;2023-02-15T00:44:07;3.70;93.80
298;DHT22;133;49.626;9.680;2023-02-15T00:46:33;3.70;93.60
298;DHT22;133;49.626;9.680;2023-02-15T00:48:58;3.60;93.90
298;DHT22;133;49.626;9.680;2023-02-15T00:51:24;3.50;94.10
298;DHT22;133;49.626;9.680;2023-02-15T00:53:50;3.50;93.90
298;DHT22;133;49.626;9.680;2023-02-15T00:56:16;3.60;93.80
298;DHT22;133;49.626;9.680;2023-02-15T00:58:42;3.50;93.30
298;DHT22;133;49.626;9.680;2023-02-15T01:01:10;3.50;93.70
298;DHT22;133;49.626;9.680;2023-02-15T01:03:36;3.50;93.80
298;DHT22;133;49.626;9.680;2023-02-15T01:06:02;3.50;93.80
298;DHT22;133;49.626;9.680;2023-02-15T01:08:28;3.60;93.50
298;DHT22;133;49.626;9.680;2023-02-15T01:10:54;3.40;93.20
298;DHT22;133;49.626;9.680;2023-02-15T01:13:20;3.50;93.60
298;DHT22;133;49.626;9.680;2023-02-15T01:15:46;3.50;93.30
298;DHT22;133;49.626;9.680;2023-02-15T01:18:17;3.50;93.40
298;DHT22;133;49.626;9.680;2023-02-15T01:20:42;3.50;93.50
298;DHT22;133;49.626;9.680;2023-02-15T01:23:08;3.50;93.30
298;DHT22;133;49.626;9.680;2023-02-15T01:25:34;3.50;93.20
298;DHT22;133;49.626;9.680;2023-02-15T01:28:01;3.50;92.50
298;DHT22;133;49.626;9.680;2023-02-15T01:30:26;3.40;93.10
298;DHT22;133;49.626;9.680;2023-02-15T01:32:52;3.50;93.20
298;DHT22;133;49.626;9.680;2023-02-15T01:35:18;3.50;93.00
298;DHT22;133;49.626;9.680;2023-02-15T01:37:43;3.50;93.00
298;DHT22;133;49.626;9.680;2023-02-15T01:40:13;3.40;92.90
298;DHT22;133;49.626;9.680;2023-02-15T01:42:39;3.40;93.10
298;DHT22;133;49.626;9.680;2023-02-15T01:45:21;3.40;93.00
298;DHT22;133;49.626;9.680;2023-02-15T01:50:45;3.30;92.80
298;DHT22;133;49.626;9.680;2023-02-15T01:53:27;3.30;92.90
298;DHT22;133;49.626;9.680;2023-02-15T01:56:02;3.30;92.90
298;DHT22;133;49.626;9.680;2023-02-15T01:58:29;3.20;93.20
298;DHT22;133;49.626;9.680;2023-02-15T02:00:57;3.20;93.40
298;DHT22;133;49.626;9.680;2023-02-15T02:04:16;3.20;93.20
298;DHT22;133;49.626;9.680;2023-02-15T02:06:17;3.20;93.40
298;DHT22;133;49.626;9.680;2023-02-15T02:08:43;3.30;93.50
298;DHT22;133;49.626;9.680;2023-02-15T02:11:13;3.30;93.20
298;DHT22;133;49.626;9.680;2023-02-15T02:13:41;3.30;92.90
298;DHT22;133;49.626;9.680;2023-02-15T02:16:19;3.30;92.80
298;DHT22;133;49.626;9.680;2023-02-15T02:43:33;3.20;92.90
298;DHT22;133;49.626;9.680;2023-02-15T02:46:07;3.20;93.50
298;DHT22;133;49.626;9.680;2023-02-15T02:48:36;3.20;93.00
298;DHT22;133;49.626;9.680;2023-02-15T02:51:02;3.10;93.20
298;DHT22;133;49.626;9.680;2023-02-15T02:53:29;3.10;93.50
298;DHT22;133;49.626;9.680;2023-02-15T02:55:59;3.20;93.60
298;DHT22;133;49.626;9.680;2023-02-15T02:58:39;3.20;93.70
298;DHT22;133;49.626;9.680;2023-02-15T03:01:36;3.30;93.40
298;DHT22;133;49.626;9.680;2023-02-15T03:04:16;3.20;93.30
298;DHT22;133;49.626;9.680;2023-02-15T03:06:57;3.30;93.00
298;DHT22;133;49.626;9.680;2023-02-15T03:09:34;3.30;92.70
298;DHT22;133;49.626;9.680;2023-02-15T03:12:28;3.30;92.80
298;DHT22;133;49.626;9.680;2023-02-15T03:15:11;3.30;92.60
298;DHT22;133;49.626;9.680;2023-02-15T03:17:44;3.20;92.40
298;DHT22;133;49.626;9.680;2023-02-15T03:20:31;3.20;92.40
298;DHT22;133;49.626;9.680;2023-02-15T03:23:04;3.00;91.80
298;DHT22;133;49.626;9.680;2023-02-15T03:25:38;3.00;92.20
298;DHT22;133;49.626;9.680;2023-02-15T03:28:11;2.90;92.30
298;DHT22;133;49.626;9.680;2023-02-15T03:30:40;2.90;92.60
298;DHT22;133;49.626;9.680;2023-02-15T03:33:07;2.90;92.60
298;DHT22;133;49.626;9.680;2023-02-15T03:35:43;2.90;92.70
298;DHT22;133;49.626;9.680;2023-02-15T03:38:12;2.80;92.60
298;DHT22;133;49.626;9.680;2023-02-15T03:40:44;2.80;92.90
298;DHT22;133;49.626;9.680;2023-02-15T03:43:55;2.90;92.90
298;DHT22;133;49.626;9.680;2023-02-15T03:46:30;2.70;92.30
298;DHT22;133;49.626;9.680;2023-02-15T03:49:10;2.70;92.80
298;DHT22;133;49.626;9.680;2023-02-15T03:51:40;2.50;93.10
298;DHT22;133;49.626;9.680;2023-02-15T03:54:14;2.60;93.20
298;DHT22;133;49.626;9.680;2023-02-15T03:57:04;2.60;93.20
298;DHT22;133;49.626;9.680;2023-02-15T03:59:49;2.60;92.80
298;DHT22;133;49.626;9.680;2023-02-15T04:03:04;2.50;93.00
298;DHT22;133;49.626;9.680;2023-02-15T04:05:31;2.50;93.00
298;DHT22;133;49.626;9.680;2023-02-15T04:07:57;2.50;93.10
298;DHT22;133;49.626;9.680;2023-02-15T04:10:23;2.50;92.90
298;DHT22;133;49.626;9.680;2023-02-15T04:13:07;2.50;92.90
298;DHT22;133;49.626;9.680;2023-02-15T04:15:33;2.60;93.00
298;DHT22;133;49.626;9.680;2023-02-15T04:18:17;2.50;93.00
298;DHT22;133;49.626;9.680;2023-02-15T04:20:46;2.50;92.60
298;DHT22;133;49.626;9.680;2023-02-15T04:23:31;2.50;92.60
298;DHT22;133;49.626;9.680;2023-02-15T04:26:16;2.40;92.60
298;DHT22;133;49.626;9.680;2023-02-15T04:28:41;2.50;92.60
298;DHT22;133;49.626;9.680;2023-02-15T04:31:07;2.50;92.80
298;DHT22;133;49.626;9.680;2023-02-15T04:33:33;2.50;92.70
298;DHT22;133;49.626;9.680;2023-02-15T04:35:59;2.50;92.70
298;DHT22;133;49.626;9.680;2023-02-15T04:38:24;2.60;92.60
298;DHT22;133;49.626;9.680;2023-02-15T04:40:51;2.70;92.60
298;DHT22;133;49.626;9.680;2023-02-15T04:43:20;2.70;92.50
298;DHT22;133;49.626;9.680;2023-02-15T04:45:49;2.70;92.20
298;DHT22;133;49.626;9.680;2023-02-15T04:48:16;2.70;92.10
298;DHT22;133;49.626;9.680;2023-02-15T04:50:42;2.60;92.20
298;DHT22;133;49.626;9.680;2023-02-15T04:53:08;2.60;92.20
298;DHT22;133;49.626;9.680;2023-02-15T04:55:34;2.60;92.20
298;DHT22;133;49.626;9.680;2023-02-15T04:57:59;2.60;92.00
298;DHT22;133;49.626;9.680;2023-02-15T05:00:25;2.50;92.50
298;DHT22;133;49.626;9.680;2023-02-15T05:02:51;2.60;92.50
298;DHT22;133;49.626;9.680;2023-02-15T05:05:17;2.60;92.50
298;DHT22;133;49.626;9.680;2023-02-15T05:07:42;2.60;92.60
298;DHT22;133;49.626;9.680;2023-02-15T05:10:08;2.60;92.50
298;DHT22;133;49.626;9.680;2023-02-15T05:12:33;2.60;92.10
298;DHT22;133;49.626;9.680;2023-02-15T05:14:59;2.60;92.60
298;DHT22;133;49.626;9.680;2023-02-15T05:17:25;2.60;92.50
298;DHT22;133;49.626;9.680;2023-02-15T05:19:50;2.60;92.10
298;DHT22;133;49.626;9.680;2023-02-15T05:22:16;2.40;92.50
298;DHT22;133;49.626;9.680;2023-02-15T05:24:41;2.50;92.50
298;DHT22;133;49.626;9.680;2023-02-15T05:27:26;2.50;92.20
298;DHT22;133;49.626;9.680;2023-02-15T05:30:10;2.50;92.30
298;DHT22;133;49.626;9.680;2023-02-15T05:32:37;2.50;91.90
298;DHT22;133;49.626;9.680;2023-02-15T05:35:05;2.40;92.30
298;DHT22;133;49.626;9.680;2023-02-15T05:37:31;2.40;92.20
298;DHT22;133;49.626;9.680;2023-02-15T05:39:56;2.40;92.30
298;DHT22;133;49.626;9.680;2023-02-15T05:42:22;2.50;92.20
298;DHT22;133;49.626;9.680;2023-02-15T05:44:48;2.30;92.10
298;DHT22;133;49.626;9.680;2023-02-15T05:47:13;2.10;93.10
298;DHT22;133;49.626;9.680;2023-02-15T05:49:39;2.20;93.00
298;DHT22;133;49.626;9.680;2023-02-15T05:52:04;2.20;93.00
298;DHT22;133;49.626;9.680;2023-02-15T05:54:30;2.20;92.50
298;DHT22;133;49.626;9.680;2023-02-15T05:56:55;2.30;92.60
298;DHT22;133;49.626;9.680;2023-02-15T05:59:21;2.10;92.40
298;DHT22;133;49.626;9.680;2023-02-15T06:01:47;2.10;92.80
298;DHT22;133;49.626;9.680;2023-02-15T06:04:12;2.10;92.60
298;DHT22;133;49.626;9.680;2023-02-15T06:06:38;2.00;92.90
298;DHT22;133;49.626;9.680;2023-02-15T06:09:04;2.10;93.10
298;DHT22;133;49.626;9.680;2023-02-15T06:11:29;2.10;93.00
298;DHT22;133;49.626;9.680;2023-02-15T06:13:55;2.10;92.80
298;DHT22;133;49.626;9.680;2023-02-15T06:16:21;2.20;92.70
298;DHT22;133;49.626;9.680;2023-02-15T06:18:46;2.10;92.60
298;DHT22;133;49.626;9.680;2023-02-15T06:21:12;2.10;92.80
298;DHT22;133;49.626;9.680;2023-02-15T06:23:37;2.10;92.80
298;DHT22;133;49.626;9.680;2023-02-15T06:26:03;2.10;93.10
298;DHT22;133;49.626;9.680;2023-02-15T06:28:29;2.10;92.80
298;DHT22;133;49.626;9.680;2023-02-15T06:30:54;2.10;92.80
298;DHT22;133;49.626;9.680;2023-02-15T06:33:20;2.20;93.10
298;DHT22;133;49.626;9.680;2023-02-15T06:35:46;2.20;93.00
298;DHT22;133;49.626;9.680;2023-02-15T06:38:11;2.20;92.80
298;DHT22;133;49.626;9.680;2023-02-15T06:40:37;2.20;92.70
298;DHT22;133;49.626;9.680;2023-02-15T06:43:03;2.30;92.70
298;DHT22;133;49.626;9.680;2023-02-15T06:45:28;2.20;92.70
298;DHT22;133;49.626;9.680;2023-02-15T06:47:54;2.20;92.80
298;DHT22;133;49.626;9.680;2023-02-15T06:50:19;2.30;92.60
298;DHT22;133;49.626;9.680;2023-02-15T06:52:45;2.20;92.40
298;DHT22;133;49.626;9.680;2023-02-15T06:55:10;2.30;92.60
298;DHT22;133;49.626;9.680;2023-02-15T06:57:36;2.30;92.50
298;DHT22;133;49.626;9.680;2023-02-15T07:00:03;2.40;92.60
298;DHT22;133;49.626;9.680;2023-02-15T07:02:30;2.40;92.40
298;DHT22;133;49.626;9.680;2023-02-15T07:04:56;2.40;92.20
298;DHT22;133;49.626;9.680;2023-02-15T07:07:22;2.40;92.50
298;DHT22;133;49.626;9.680;2023-02-15T07:09:47;2.40;92.40
298;DHT22;133;49.626;9.680;2023-02-15T07:12:13;2.40;92.00
298;DHT22;133;49.626;9.680;2023-02-15T07:14:57;2.30;91.80
298;DHT22;133;49.626;9.680;2023-02-15T07:17:23;2.20;91.80
298;DHT22;133;49.626;9.680;2023-02-15T07:19:49;2.20;91.70
298;DHT22;133;49.626;9.680;2023-02-15T07:22:15;2.20;91.40
298;DHT22;133;49.626;9.680;2023-02-15T07:24:40;2.20;91.60
298;DHT22;133;49.626;9.680;2023-02-15T07:27:07;2.10;91.50
298;DHT22;133;49.626;9.680;2023-02-15T07:29:33;2.10;91.70
298;DHT22;133;49.626;9.680;2023-02-15T07:31:58;2.10;91.70
298;DHT22;133;49.626;9.680;2023-02-15T07:34:24;2.10;91.70
298;DHT22;133;49.626;9.680;2023-02-15T07:36:51;2.20;91.80
298;DHT22;133;49.626;9.680;2023-02-15T07:39:16;2.20;91.60
298;DHT22;133;49.626;9.680;2023-02-15T07:41:42;2.10;91.60
298;DHT22;133;49.626;9.680;2023-02-15T07:44:12;2.10;91.90
298;DHT22;133;49.626;9.680;2023-02-15T07:46:38;2.20;91.90
298;DHT22;133;49.626;9.680;2023-02-15T07:49:04;2.20;91.90
298;DHT22;133;49.626;9.680;2023-02-15T07:51:30;2.30;91.80
298;DHT22;133;49.626;9.680;2023-02-15T07:53:55;2.30;91.40
298;DHT22;133;49.626;9.680;2023-02-15T07:56:21;2.20;91.50
298;DHT22;133;49.626;9.680;2023-02-15T07:58:46;2.20;91.80
298;DHT22;133;49.626;9.680;2023-02-15T08:01:20;2.20;92.10
298;DHT22;133;49.626;9.680;2023-02-15T08:03:47;2.30;92.00
298;DHT22;133;49.626;9.680;2023-02-15T08:06:12;2.40;91.90
298;DHT22;133;49.626;9.680;2023-02-15T08:08:39;2.30;91.50
298;DHT22;133;49.626;9.680;2023-02-15T08:11:21;2.30;91.70
298;DHT22;133;49.626;9.680;2023-02-15T08:14:17;2.40;91.80
298;DHT22;133;49.626;9.680;2023-02-15T08:16:51;2.50;91.10
298;DHT22;133;49.626;9.680;2023-02-15T08:19:25;2.60;91.20
298;DHT22;133;49.626;9.680;2023-02-15T08:21:56;2.60;91.00
298;DHT22;133;49.626;9.680;2023-02-15T08:24:24;2.60;90.50
298;DHT22;133;49.626;9.680;2023-02-15T08:26:50;2.60;90.60
298;DHT22;133;49.626;9.680;2023-02-15T08:29:19;2.60;90.60
298;DHT22;133;49.626;9.680;2023-02-15T08:31:46;2.60;90.30
298;DHT22;133;49.626;9.680;2023-02-15T08:34:15;2.60;90.00
298;DHT22;133;49.626;9.680;2023-02-15T08:36:43;2.60;90.20
298;DHT22;133;49.626;9.680;2023-02-15T08:39:11;2.50;90.30
298;DHT22;133;49.626;9.680;2023-02-15T08:41:38;2.60;90.50
298;DHT22;133;49.626;9.680;2023-02-15T08:44:06;2.70;90.70
298;DHT22;133;49.626;9.680;2023-02-15T08:46:35;2.70;90.50
298;DHT22;133;49.626;9.680;2023-02-15T08:49:02;2.80;90.40
298;DHT22;133;49.626;9.680;2023-02-15T08:51:30;2.80;90.40
298;DHT22;133;49.626;9.680;2023-02-15T08:53:58;2.90;90.10
298;DHT22;133;49.626;9.680;2023-02-15T08:56:27;2.80;89.90
298;DHT22;133;49.626;9.680;2023-02-15T08:58:54;2.80;90.30
298;DHT22;133;49.626;9.680;2023-02-15T09:01:21;2.90;90.00
298;DHT22;133;49.626;9.680;2023-02-15T09:03:50;2.80;89.90
298;DHT22;133;49.626;9.680;2023-02-15T09:06:18;2.90;90.10
298;DHT22;133;49.626;9.680;2023-02-15T09:08:44;2.90;90.10
298;DHT22;133;49.626;9.680;2023-02-15T09:11:12;3.00;89.60
298;DHT22;133;49.626;9.680;2023-02-15T09:13:39;2.90;90.20
298;DHT22;133;49.626;9.680;2023-02-15T09:16:07;2.90;90.10
298;DHT22;133;49.626;9.680;2023-02-15T09:18:36;2.90;90.20
298;DHT22;133;49.626;9.680;2023-02-15T09:21:12;3.00;90.30
298;DHT22;133;49.626;9.680;2023-02-15T09:23:42;3.00;89.90
298;DHT22;133;49.626;9.680;2023-02-15T09:26:16;3.10;89.80
298;DHT22;133;49.626;9.680;2023-02-15T09:28:42;3.20;89.60
298;DHT22;133;49.626;9.680;2023-02-15T09:31:09;3.20;89.20
298;DHT22;133;49.626;9.680;2023-02-15T09:33:36;3.20;89.10
298;DHT22;133;49.626;9.680;2023-02-15T09:36:03;3.30;88.50
298;DHT22;133;49.626;9.680;2023-02-15T09:38:29;3.20;88.40
298;DHT22;133;49.626;9.680;2023-02-15T10:00:31;3.40;88.60
298;DHT22;133;49.626;9.680;2023-02-15T10:09:33;3.50;87.80
298;DHT22;133;49.626;9.680;2023-02-15T10:15:02;3.50;88.00
298;DHT22;133;49.626;9.680;2023-02-15T10:17:52;3.40;88.10
298;DHT22;133;49.626;9.680;2023-02-15T10:31:17;3.40;88.60
298;DHT22;133;49.626;9.680;2023-02-15T10:33:51;3.40;88.70
298;DHT22;133;49.626;9.680;2023-02-15T10:42:29;3.70;88.00
298;DHT22;133;49.626;9.680;2023-02-15T10:50:56;3.80;87.50
298;DHT22;133;49.626;9.680;2023-02-15T10:53:44;3.90;87.10
298;DHT22;133;49.626;9.680;2023-02-15T10:56:19;3.90;87.00
298;DHT22;133;49.626;9.680;2023-02-15T11:01:39;4.10;86.90
298;DHT22;133;49.626;9.680;2023-02-15T11:04:45;4.00;86.60
298;DHT22;133;49.626;9.680;2023-02-15T11:07:40;4.10;87.10
298;DHT22;133;49.626;9.680;2023-02-15T11:12:45;4.20;86.20
298;DHT22;133;49.626;9.680;2023-02-15T11:18:02;4.30;86.50
298;DHT22;133;49.626;9.680;2023-02-15T11:20:36;4.30;86.30
298;DHT22;133;49.626;9.680;2023-02-15T11:23:15;4.40;86.10
298;DHT22;133;49.626;9.680;2023-02-15T11:25:44;4.40;86.20
298;DHT22;133;49.626;9.680;2023-02-15T11:28:19;4.40;86.30
298;DHT22;133;49.626;9.680;2023-02-15T11:30:53;4.40;86.00
298;DHT22;133;49.626;9.680;2023-02-15T11:33:33;4.50;86.00
298;DHT22;133;49.626;9.680;2023-02-15T11:36:08;4.60;85.80
298;DHT22;133;49.626;9.680;2023-02-15T11:38:36;4.50;85.10
298;DHT22;133;49.626;9.680;2023-02-15T11:41:14;4.50;85.70
298;DHT22;133;49.626;9.680;2023-02-15T11:44:02;4.50;85.20
298;DHT22;133;49.626;9.680;2023-02-15T11:46:30;4.50;85.20
298;DHT22;133;49.626;9.680;2023-02-15T11:48:56;4.60;85.20
298;DHT22;133;49.626;9.680;2023-02-15T11:51:22;4.60;85.60
298;DHT22;133;49.626;9.680;2023-02-15T11:53:49;4.60;85.80
298;DHT22;133;49.626;9.680;2023-02-15T11:56:25;4.70;85.70
298;DHT22;133;49.626;9.680;2023-02-15T12:01:31;4.70;84.90
298;DHT22;133;49.626;9.680;2023-02-15T12:06:37;4.20;85.90
298;DHT22;133;49.626;9.680;2023-02-15T12:11:51;4.20;86.70
298;DHT22;133;49.626;9.680;2023-02-15T12:14:16;4.20;86.90
298;DHT22;133;49.626;9.680;2023-02-15T12:19:30;4.50;86.60
298;DHT22;133;49.626;9.680;2023-02-15T12:21:57;4.60;86.50
298;DHT22;133;49.626;9.680;2023-02-15T12:24:29;4.70;86.10
298;DHT22;133;49.626;9.680;2023-02-15T12:27:16;4.70;86.20
298;DHT22;133;49.626;9.680;2023-02-15T12:29:57;4.90;86.00
298;DHT22;133;49.626;9.680;2023-02-15T12:32:31;5.00;85.50
298;DHT22;133;49.626;9.680;2023-02-15T12:35:16;5.00;85.20
298;DHT22;133;49.626;9.680;2023-02-15T12:38:02;4.90;84.70
298;DHT22;133;49.626;9.680;2023-02-15T12:40:32;4.80;84.50
298;DHT22;133;49.626;9.680;2023-02-15T12:42:59;4.80;85.20
298;DHT22;133;49.626;9.680;2023-02-15T12:45:31;4.90;85.50
298;DHT22;133;49.626;9.680;2023-02-15T12:50:40;4.80;85.60
298;DHT22;133;49.626;9.680;2023-02-15T12:53:32;4.90;85.80
298;DHT22;133;49.626;9.680;2023-02-15T12:56:06;4.90;85.30
298;DHT22;133;49.626;9.680;2023-02-15T12:58:37;4.80;84.70
298;DHT22;133;49.626;9.680;2023-02-15T13:03:35;4.90;84.80
298;DHT22;133;49.626;9.680;2023-02-15T13:06:03;4.80;85.20
298;DHT22;133;49.626;9.680;2023-02-15T13:08:35;4.70;86.10
298;DHT22;133;49.626;9.680;2023-02-15T13:11:11;4.70;85.90
298;DHT22;133;49.626;9.680;2023-02-15T13:14:03;4.90;85.70
298;DHT22;133;49.626;9.680;2023-02-15T13:16:38;4.90;85.50
298;DHT22;133;49.626;9.680;2023-02-15T13:19:34;4.90;86.10
298;DHT22;133;49.626;9.680;2023-02-15T13:22:22;5.00;86.40
298;DHT22;133;49.626;9.680;2023-02-15T13:25:03;5.00;86.40
298;DHT22;133;49.626;9.680;2023-02-15T13:27:41;5.00;86.30
298;DHT22;133;49.626;9.680;2023-02-15T13:32:45;5.20;85.70
298;DHT22;133;49.626;9.680;2023-02-15T13:35:16;5.40;85.60
298;DHT22;133;49.626;9.680;2023-02-15T13:40:59;5.50;84.90
298;DHT22;133;49.626;9.680;2023-02-15T13:54:49;5.70;84.20
298;DHT22;133;49.626;9.680;2023-02-15T14:00:26;5.70;83.50
298;DHT22;133;49.626;9.680;2023-02-15T14:06:23;5.70;83.20
298;DHT22;133;49.626;9.680;2023-02-15T14:11:39;6.00;83.20
298;DHT22;133;49.626;9.680;2023-02-15T14:23:23;7.80;78.60
298;DHT22;133;49.626;9.680;2023-02-15T14:26:03;8.20;77.10
298;DHT22;133;49.626;9.680;2023-02-15T14:28:41;8.70;75.60
298;DHT22;133;49.626;9.680;2023-02-15T14:31:11;8.60;75.40
298;DHT22;133;49.626;9.680;2023-02-15T14:33:40;9.00;74.60
298;DHT22;133;49.626;9.680;2023-02-15T14:36:12;9.20;74.40
298;DHT22;133;49.626;9.680;2023-02-15T14:39:15;9.40;73.40
298;DHT22;133;49.626;9.680;2023-02-15T14:42:33;9.30;72.90
298;DHT22;133;49.626;9.680;2023-02-15T14:48:11;9.00;73.90
298;DHT22;133;49.626;9.680;2023-02-15T14:50:40;8.90;73.80
298;DHT22;133;49.626;9.680;2023-02-15T14:56:23;8.80;74.20
298;DHT22;133;49.626;9.680;2023-02-15T15:01:16;8.20;75.40
298;DHT22;133;49.626;9.680;2023-02-15T15:03:57;8.00;76.00
298;DHT22;133;49.626;9.680;2023-02-15T15:06:29;7.80;77.00
298;DHT22;133;49.626;9.680;2023-02-15T15:09:05;7.50;77.80
298;DHT22;133;49.626;9.680;2023-02-15T15:11:42;6.90;79.70
298;DHT22;133;49.626;9.680;2023-02-15T15:14:08;6.80;80.10
298;DHT22;133;49.626;9.680;2023-02-15T15:19:04;6.10;82.20
298;DHT22;133;49.626;9.680;2023-02-15T15:27:37;5.40;85.00
298;DHT22;133;49.626;9.680;2023-02-15T15:33:19;5.20;85.60
298;DHT22;133;49.626;9.680;2023-02-15T15:36:12;4.90;86.90
298;DHT22;133;49.626;9.680;2023-02-15T15:44:51;4.80;87.20
298;DHT22;133;49.626;9.680;2023-02-15T15:47:40;4.70;87.60
298;DHT22;133;49.626;9.680;2023-02-15T15:50:17;4.60;87.60
298;DHT22;133;49.626;9.680;2023-02-15T15:52:51;4.50;87.80
298;DHT22;133;49.626;9.680;2023-02-15T15:55:23;4.40;88.30
298;DHT22;133;49.626;9.680;2023-02-15T15:57:53;4.30;88.50
298;DHT22;133;49.626;9.680;2023-02-15T16:02:53;4.00;89.30
298;DHT22;133;49.626;9.680;2023-02-15T16:05:20;3.90;89.70
298;DHT22;133;49.626;9.680;2023-02-15T16:07:46;3.80;90.20
298;DHT22;133;49.626;9.680;2023-02-15T16:10:27;3.60;90.90
298;DHT22;133;49.626;9.680;2023-02-15T16:12:53;3.60;91.30
298;DHT22;133;49.626;9.680;2023-02-15T16:15:22;3.60;91.00
298;DHT22;133;49.626;9.680;2023-02-15T16:17:55;3.50;91.40
298;DHT22;133;49.626;9.680;2023-02-15T16:20:29;3.40;91.90
298;DHT22;133;49.626;9.680;2023-02-15T16:28:33;3.40;92.60
298;DHT22;133;49.626;9.680;2023-02-15T16:31:14;3.40;92.20
298;DHT22;133;49.626;9.680;2023-02-15T16:33:41;3.40;92.30
298;DHT22;133;49.626;9.680;2023-02-15T16:36:27;3.30;92.50
298;DHT22;133;49.626;9.680;2023-02-15T16:41:22;3.10;92.90
298;DHT22;133;49.626;9.680;2023-02-15T16:43:50;3.10;93.20
298;DHT22;133;49.626;9.680;2023-02-15T16:49:23;3.00;93.50
298;DHT22;133;49.626;9.680;2023-02-15T16:52:04;3.00;93.50
298;DHT22;133;49.626;9.680;2023-02-15T16:54:34;3.00;93.40
298;DHT22;133;49.626;9.680;2023-02-15T16:57:01;3.00;93.60
298;DHT22;133;49.626;9.680;2023-02-15T16:59:39;2.80;94.00
298;DHT22;133;49.626;9.680;2023-02-15T17:02:32;2.80;94.30
298;DHT22;133;49.626;9.680;2023-02-15T17:07:41;2.70;94.40
298;DHT22;133;49.626;9.680;2023-02-15T17:10:31;2.80;94.10
298;DHT22;133;49.626;9.680;2023-02-15T17:13:03;2.90;93.20
298;DHT22;133;49.626;9.680;2023-02-15T17:15:36;2.80;92.60
298;DHT22;133;49.626;9.680;2023-02-15T17:18:15;2.80;92.40
298;DHT22;133;49.626;9.680;2023-02-15T17:20:42;2.80;92.20
298;DHT22;133;49.626;9.680;2023-02-15T17:23:41;2.70;91.90
298;DHT22;133;49.626;9.680;2023-02-15T17:26:14;2.70;91.90
298;DHT22;133;49.626;9.680;2023-02-15T17:28:46;2.70;91.90
298;DHT22;133;49.626;9.680;2023-02-15T17:31:13;2.70;91.70
298;DHT22;133;49.626;9.680;2023-02-15T17:33:41;2.60;91.80
298;DHT22;133;49.626;9.680;2023-02-15T17:36:18;2.60;92.00
298;DHT22;133;49.626;9.680;2023-02-15T17:41:26;2.50;91.70
298;DHT22;133;49.626;9.680;2023-02-15T17:43:52;2.50;91.50
298;DHT22;133;49.626;9.680;2023-02-15T17:46:18;2.50;91.70
298;DHT22;133;49.626;9.680;2023-02-15T17:48:48;2.40;91.60
298;DHT22;133;49.626;9.680;2023-02-15T17:51:15;2.40;91.50
298;DHT22;133;49.626;9.680;2023-02-15T17:53:42;2.30;91.30
298;DHT22;133;49.626;9.680;2023-02-15T17:56:28;2.30;91.30
298;DHT22;133;49.626;9.680;2023-02-15T17:58:53;2.20;91.40
298;DHT22;133;49.626;9.680;2023-02-15T18:01:20;2.20;91.40
298;DHT22;133;49.626;9.680;2023-02-15T18:04:07;2.10;91.50
298;DHT22;133;49.626;9.680;2023-02-15T18:06:52;2.10;91.70
298;DHT22;133;49.626;9.680;2023-02-15T18:09:36;2.10;91.70
298;DHT22;133;49.626;9.680;2023-02-15T18:12:26;2.00;91.80
298;DHT22;133;49.626;9.680;2023-02-15T18:14:53;2.00;91.80
298;DHT22;133;49.626;9.680;2023-02-15T18:17:23;2.00;92.10
298;DHT22;133;49.626;9.680;2023-02-15T18:19:51;2.00;92.40
298;DHT22;133;49.626;9.680;2023-02-15T18:22:19;1.90;92.50
298;DHT22;133;49.626;9.680;2023-02-15T18:24:46;1.90;92.50
298;DHT22;133;49.626;9.680;2023-02-15T18:27:13;1.90;92.70
298;DHT22;133;49.626;9.680;2023-02-15T18:29:39;2.00;92.50
298;DHT22;133;49.626;9.680;2023-02-15T18:32:07;1.90;92.60
298;DHT22;133;49.626;9.680;2023-02-15T18:34:38;1.80;92.50
298;DHT22;133;49.626;9.680;2023-02-15T18:37:08;1.80;92.20
298;DHT22;133;49.626;9.680;2023-02-15T18:39:46;1.80;92.10
298;DHT22;133;49.626;9.680;2023-02-15T18:42:33;1.80;92.20
298;DHT22;133;49.626;9.680;2023-02-15T18:45:26;1.70;92.10
298;DHT22;133;49.626;9.680;2023-02-15T18:47:57;1.70;92.00
298;DHT22;133;49.626;9.680;2023-02-15T18:50:29;1.70;92.10
298;DHT22;133;49.626;9.680;2023-02-15T18:52:57;1.60;92.20
298;DHT22;133;49.626;9.680;2023-02-15T18:55:24;1.60;92.20
298;DHT22;133;49.626;9.680;2023-02-15T18:57:53;1.60;92.10
298;DHT22;133;49.626;9.680;2023-02-15T19:00:45;1.60;92.40
298;DHT22;133;49.626;9.680;2023-02-15T19:03:16;1.60;92.40
298;DHT22;133;49.626;9.680;2023-02-15T19:05:45;1.60;92.50
298;DHT22;133;49.626;9.680;2023-02-15T19:08:16;1.50;92.60
298;DHT22;133;49.626;9.680;2023-02-15T19:10:43;1.60;92.80
298;DHT22;133;49.626;9.680;2023-02-15T19:13:09;1.60;92.80
298;DHT22;133;49.626;9.680;2023-02-15T19:15:35;1.60;93.10
298;DHT22;133;49.626;9.680;2023-02-15T19:18:01;1.70;93.00
298;DHT22;133;49.626;9.680;2023-02-15T19:20:31;1.70;93.00
298;DHT22;133;49.626;9.680;2023-02-15T19:22:58;1.80;92.70
298;DHT22;133;49.626;9.680;2023-02-15T19:25:28;1.80;92.70
298;DHT22;133;49.626;9.680;2023-02-15T19:27:55;1.70;92.50
298;DHT22;133;49.626;9.680;2023-02-15T19:30:27;1.80;92.60
298;DHT22;133;49.626;9.680;2023-02-15T19:32:57;1.80;92.70
298;DHT22;133;49.626;9.680;2023-02-15T19:35:26;1.80;92.80
298;DHT22;133;49.626;9.680;2023-02-15T19:37:56;1.80;92.70
298;DHT22;133;49.626;9.680;2023-02-15T19:40:28;1.90;92.30
298;DHT22;133;49.626;9.680;2023-02-15T19:42:54;1.80;92.40
298;DHT22;133;49.626;9.680;2023-02-15T19:45:23;1.80;92.50
298;DHT22;133;49.626;9.680;2023-02-15T19:47:49;1.80;92.60
298;DHT22;133;49.626;9.680;2023-02-15T19:50:18;1.80;92.40
298;DHT22;133;49.626;9.680;2023-02-15T19:52:45;1.80;92.30
298;DHT22;133;49.626;9.680;2023-02-15T19:55:31;1.80;92.10
298;DHT22;133;49.626;9.680;2023-02-15T19:57:59;1.80;92.10
298;DHT22;133;49.626;9.680;2023-02-15T20:00:27;1.80;92.10
298;DHT22;133;49.626;9.680;2023-02-15T20:02:54;1.80;92.10
298;DHT22;133;49.626;9.680;2023-02-15T20:05:21;1.90;92.10
298;DHT22;133;49.626;9.680;2023-02-15T20:07:49;1.80;92.20
298;DHT22;133;49.626;9.680;2023-02-15T20:10:17;1.80;92.20
298;DHT22;133;49.626;9.680;2023-02-15T20:12:44;1.80;92.60
298;DHT22;133;49.626;9.680;2023-02-15T20:15:25;1.80;92.60
298;DHT22;133;49.626;9.680;2023-02-15T20:17:52;1.70;93.50
298;DHT22;133;49.626;9.680;2023-02-15T20:20:18;1.80;93.50
298;DHT22;133;49.626;9.680;2023-02-15T20:22:47;1.80;93.50